ADDS METAR Data INFO
IDs: Format: Raw Decoded Include TAF

Data at: 1209 UTC 21 Jun 2018

KPOF 211153Z AUTO 24003KT 8SM OVC007 22/21 A2982 RMK AO2 CIG 005V011 SLP094 60000 70022 T02170211 10217 20211 53001
KPOF 211053Z AUTO 21004KT 9SM BKN007 BKN016 OVC037 21/21 A2982 RMK AO2 SLP092 T02110211
KPOF 211045Z AUTO 19005KT 9SM BKN005 BKN016 OVC036 21/21 A2981 RMK AO2 T02110211
KPOF 211040Z AUTO 19006KT 9SM SCT005 BKN036 OVC110 21/21 A2981 RMK AO2 T02110211
KPOF 211019Z AUTO 21005KT 10SM SCT021 BKN034 OVC110 21/21 A2980 RMK AO2 T02110211
KPOF 210953Z AUTO 20004KT 10SM OVC021 21/21 A2981 RMK AO2 RAB0854E03B29E39 SLP089 P0000 T02110211
KPOF 210853Z AUTO 23006KT 10SM BKN025 OVC031 22/21 A2982 RMK AO2 RAE0759 SLP091 P0000 60000 T02170211 56009
KPOF 210840Z AUTO 24006KT 10SM SCT009 BKN024 OVC030 22/21 A2981 RMK AO2 RAE0759 P0000 T02170211
KPOF 210803Z AUTO 23005KT 10SM OVC009 22/21 A2982 RMK AO2 RAE0759 CIG 007V015 P0000 T02170211
KPOF 210753Z AUTO 23005KT 10SM -RA OVC011 22/21 A2982 RMK AO2 RAB14 SLP093 P0000 T02170211
KPOF 210735Z AUTO 24006KT 10SM -RA BKN011 OVC023 22/21 A2983 RMK AO2 RAB14 P0000 T02170211
KPOF 210653Z AUTO 22006KT 10SM OVC009 22/21 A2984 RMK AO2 RAB04E29 CIG 007V013 SLP100 P0000 T02170211
KPOF 210643Z AUTO 22005KT 10SM OVC010 22/21 A2985 RMK AO2 RAB04E29 CIG 007V012 P0000 T02170211
KPOF 210635Z AUTO VRB05KT 10SM BKN008 OVC013 22/21 A2985 RMK AO2 RAB04E29 P0000 T02170211
KPOF 210623Z AUTO 22006KT 10SM -RA BKN010 BKN055 OVC070 21/21 A2985 RMK AO2 RAB04 P0000 T02110211
KPOF 210553Z AUTO 21007KT 10SM FEW010 BKN038 OVC060 21/21 A2985 RMK AO2 RAE11 SLP105 P0000 60021 T02110211 10239 20211 403220211 58006
KPOF 210453Z AUTO 21008KT 10SM -RA FEW120 22/21 A2987 RMK AO2 SLP109 P0003 T02170211
KPOF 210400Z AUTO 22010KT 9SM -RA FEW005 SCT090 BKN120 22/22 A2987 RMK AO2 P0000 T02170217
KPOF 210353Z AUTO 21009KT 8SM -RA BKN007 BKN060 BKN110 22/22 A2987 RMK AO2 SLP109 P0015 T02170217
KPOF 210329Z AUTO 20012KT 4SM RA BR SCT007 BKN055 OVC100 22/22 A2986 RMK AO2 P0011 T02170217
KPOF 210253Z AUTO 21013G19KT 5SM -RA BR OVC008 23/23 A2987 RMK AO2 RAE32B37 CIG 005V011 SLP110 P0002 60003 T02330228 51006
KPOF 210239Z AUTO 19009KT 10SM -RA BKN009 OVC015 23/23 A2987 RMK AO2 RAE32B37 CIG 006V012 P0001 T02330228
KPOF 210233Z AUTO 20008KT 10SM SCT009 BKN016 OVC060 23/23 A2987 RMK AO2 RAE32 P0001 T02330228
KPOF 210223Z AUTO 19009KT 10SM -RA BKN014 BKN060 OVC120 23/23 A2987 RMK AO2 P0001 T02330228
KPOF 210153Z AUTO 22004KT 10SM -RA FEW028 BKN060 OVC075 23/22 A2987 RMK AO2 RAB0056E25B41 SLP110 P0000 T02280222
KPOF 210053Z AUTO 21006KT 10SM FEW095 SCT120 23/22 A2988 RMK AO2 RAE37 SLP113 P0001 T02280217
KPOF 202353Z AUTO 22008KT 10SM -RA FEW048 SCT090 OVC110 24/22 A2986 RMK AO2 TSE2258 SLP106 P0000 60001 T02390222 10322 20239 53002
KPOF 202301Z AUTO 25007G19KT 10SM -RA FEW028 BKN065 BKN100 24/22 A2986 RMK AO2 LTG DSNT NE TSE2258 P0000 T02390222
KPOF 202253Z AUTO 25012G19KT 10SM -TSRA FEW027 SCT041 BKN060 24/22 A2986 RMK AO2 PK WND 22038/2228 LTG DSNT NE AND SW RAB28 TSB35 SLP108 P0001 T02390217
KPOF 202241Z AUTO 25015G35KT 10SM -TSRA FEW027 BKN043 OVC080 24/22 A2986 RMK AO2 PK WND 22038/2228 LTG DSNT SW RAB28 TSB35 P0001 T02390222
KPOF 202207Z AUTO 21010KT 10SM SCT042 SCT060 BKN120 30/21 A2984 RMK AO2 LTG DSNT SW T03000211
KPOF 202153Z AUTO 20009G18KT 10SM VCTS FEW070 FEW120 31/22 A2984 RMK AO2 LTG DSNT SW SLP099 T03060217
KPOF 202145Z AUTO 22012G18KT 10SM VCTS CLR 31/22 A2985 RMK AO2 LTG DSNT SW T03060217
KPOF 202053Z AUTO 20012G19KT 10SM CLR 31/22 A2985 RMK AO2 SLP102 T03110217 56019
KPOF 201953Z AUTO 21014G18KT 10SM SCT120 32/21 A2987 RMK AO2 SLP107 T03220206
KPOF 201853Z AUTO 20013G22KT 10SM FEW040 SCT090 31/22 A2989 RMK AO2 SLP115 T03110217
KPOF 201753Z AUTO 21014KT 10SM FEW026 FEW070 30/23 A2991 RMK AO2 SLP121 T03000233 10306 20239 58008
KPOF 201653Z AUTO 21011G19KT 10SM OVC110 29/23 A2992 RMK AO2 SLP126 T02890228
KPOF 201553Z AUTO 21009KT 10SM SCT070 OVC100 28/23 A2993 RMK AO2 SLP130 T02780228
KPOF 201453Z AUTO 19009KT 10SM CLR 28/23 A2993 RMK AO2 SLP130 T02830228 58002
KPOF 201353Z AUTO 22006KT 10SM FEW100 27/22 A2993 RMK AO2 SLP131 T02720222
KPOF 201253Z AUTO 23005KT 10SM SCT080 25/22 A2994 RMK AO2 SLP133 T02500217
KPOF 201153Z AUTO 00000KT 10SM SCT075 24/21 A2994 RMK AO2 SLP132 T02390211 10250 20222 52002
KPOF 201053Z AUTO 23003KT 10SM CLR 22/21 A2993 RMK AO2 SLP131 T02220206
KPOF 200953Z AUTO 18003KT 10SM CLR 23/21 A2993 RMK AO2 SLP130 T02280206
KPOF 200853Z AUTO 00000KT 10SM CLR 23/21 A2993 RMK AO2 SLP129 T02330206 56003
KPOF 200753Z AUTO 21004KT 10SM CLR 23/20 A2993 RMK AO2 SLP130 T02330200
KPOF 200653Z AUTO 20005KT 10SM CLR 24/20 A2993 RMK AO2 SLP129 T02440200
KPOF 200553Z AUTO 22005KT 10SM CLR 25/20 A2994 RMK AO2 SLP131 T02500200 10311 20250 403280228 53002
KPOF 200453Z AUTO 20007KT 10SM CLR 26/21 A2993 RMK AO2 SLP129 T02560206
KPOF 200353Z AUTO 19007KT 10SM CLR 26/21 A2993 RMK AO2 SLP130 T02610206
KPOF 200253Z AUTO 20005KT 10SM CLR 27/21 A2993 RMK AO2 SLP130 T02670206 53001
KPOF 200153Z AUTO 20005KT 10SM CLR 28/20 A2993 RMK AO2 SLP128 T02830200
KPOF 200053Z AUTO 20007KT 10SM CLR 29/19 A2992 RMK AO2 SLP126 T02940194